Time;durP1;ratioP1;P1;durP2;ratioP2;P2;SDS_P1;SDS_P2;PMS_P1;PMS_P2;Temp;Humidity;BMP_temperature;BMP_pressure;BME280_temperature;BME280_humidity;BME280_pressure;Samples;Min_cycle;Max_cycle;Signal;HPM_P1;HPM_P2
2022/02/21 00:01:11;;;;;;;3.83;1.30;;;10.60;82.00;;;;;;5020020;28;20457;-46
2022/02/21 00:03:38;;;;;;;2.83;1.07;;;10.70;81.70;;;;;;5018233;28;20553;-47
2022/02/21 00:06:05;;;;;;;3.10;1.10;;;10.70;81.70;;;;;;5002920;28;20455;-46
2022/02/21 00:08:32;;;;;;;4.47;1.17;;;10.70;81.50;;;;;;5022173;28;20508;-46
2022/02/21 00:10:59;;;;;;;1.67;1.23;;;10.70;81.50;;;;;;5017859;28;21048;-47
2022/02/21 00:13:25;;;;;;;2.27;1.07;;;10.70;81.70;;;;;;5017880;28;20513;-46
2022/02/21 00:15:52;;;;;;;3.47;1.80;;;10.80;81.50;;;;;;5020918;28;20910;-46
2022/02/21 00:18:19;;;;;;;7.97;1.50;;;10.80;81.50;;;;;;5018890;28;20486;-45
2022/02/21 00:20:45;;;;;;;2.57;0.83;;;10.80;82.00;;;;;;5018873;28;20455;-45
2022/02/21 00:23:13;;;;;;;1.90;0.90;;;10.70;82.30;;;;;;5002432;28;20447;-45
2022/02/21 00:25:40;;;;;;;2.13;0.70;;;10.70;82.40;;;;;;5015788;28;21000;-46
2022/02/21 00:28:08;;;;;;;2.63;1.00;;;10.70;82.80;;;;;;4985165;28;20472;-46
2022/02/21 00:30:35;;;;;;;2.23;0.57;;;10.70;82.90;;;;;;5020403;28;20460;-45
2022/02/21 00:33:01;;;;;;;3.87;1.17;;;10.70;82.70;;;;;;5018874;28;20459;-46
2022/02/21 00:35:28;;;;;;;1.47;1.00;;;10.70;83.10;;;;;;5019169;28;20594;-46
2022/02/21 00:37:55;;;;;;;1.80;1.03;;;10.70;83.30;;;;;;5019317;28;20460;-45
2022/02/21 00:40:22;;;;;;;3.23;1.00;;;10.70;83.20;;;;;;5022267;28;20557;-45
2022/02/21 00:42:49;;;;;;;2.10;0.90;;;10.70;83.00;;;;;;5018243;28;20869;-46
2022/02/21 00:45:16;;;;;;;1.00;0.70;;;10.70;82.70;;;;;;5017827;28;20951;-45
2022/02/21 00:47:42;;;;;;;3.80;0.77;;;10.70;82.60;;;;;;5000783;28;20517;-45
2022/02/21 00:50:10;;;;;;;3.47;1.30;;;10.70;82.60;;;;;;5018287;28;20886;-45
2022/02/21 00:52:37;;;;;;;1.03;0.70;;;10.80;82.40;;;;;;4989169;28;20953;-46
2022/02/21 00:55:04;;;;;;;1.87;0.70;;;10.80;82.30;;;;;;5019785;28;20494;-45
2022/02/21 00:57:31;;;;;;;3.17;1.10;;;10.80;82.10;;;;;;5021378;28;20526;-45
2022/02/21 00:59:58;;;;;;;4.50;2.17;;;10.80;82.20;;;;;;5021509;28;20537;-45
2022/02/21 01:02:28;;;;;;;3.63;0.90;;;10.80;82.10;;;;;;5023976;28;20459;-45
2022/02/21 01:04:55;;;;;;;2.03;1.00;;;10.80;82.00;;;;;;5007048;28;20492;-45
2022/02/21 01:07:22;;;;;;;5.17;1.00;;;10.80;82.10;;;;;;4989214;28;20473;-45
2022/02/21 01:09:48;;;;;;;1.30;0.90;;;10.90;82.30;;;;;;5006691;28;20463;-45
2022/02/21 01:12:16;;;;;;;1.93;1.30;;;10.90;82.40;;;;;;4992374;28;20545;-45
2022/02/21 01:14:43;;;;;;;1.80;0.60;;;10.90;82.50;;;;;;5028051;28;20979;-46
2022/02/21 01:17:10;;;;;;;2.20;0.70;;;10.90;82.70;;;;;;5024783;28;20470;-45
2022/02/21 01:19:36;;;;;;;1.30;1.20;;;10.90;82.90;;;;;;5009797;28;20455;-46
2022/02/21 01:22:05;;;;;;;1.13;0.70;;;10.90;83.90;;;;;;5024819;28;20459;-45
2022/02/21 01:24:31;;;;;;;2.30;0.80;;;10.80;85.50;;;;;;5020094;28;20455;-46
2022/02/21 01:26:58;;;;;;;6.50;1.90;;;10.80;87.00;;;;;;5022839;28;20468;-46
2022/02/21 01:29:25;;;;;;;7.53;1.00;;;10.70;88.10;;;;;;5025108;28;20566;-46
2022/02/21 01:31:54;;;;;;;2.77;1.10;;;10.60;87.30;;;;;;5021238;28;20459;-47
2022/02/21 01:34:21;;;;;;;1.37;0.50;;;10.30;79.80;;;;;;5025373;28;20551;-46
2022/02/21 01:36:48;;;;;;;1.90;0.97;;;10.00;79.60;;;;;;5023170;28;20495;-46
2022/02/21 01:39:15;;;;;;;1.37;0.67;;;9.70;79.60;;;;;;5023833;28;20498;-47
2022/02/21 01:41:42;;;;;;;2.20;0.80;;;9.40;78.70;;;;;;5017134;28;20467;-46
2022/02/21 01:44:11;;;;;;;2.40;0.73;;;9.20;78.70;;;;;;5023443;28;20471;-47
2022/02/21 01:46:40;;;;;;;3.87;0.80;;;9.10;80.00;;;;;;5023071;28;20494;-47
2022/02/21 01:49:08;;;;;;;0.80;0.80;;;8.90;79.70;;;;;;5023141;28;20467;-47
2022/02/21 01:51:36;;;;;;;2.50;0.70;;;8.80;79.80;;;;;;5006297;28;20546;-47
2022/02/21 01:54:08;;;;;;;5.50;0.77;;;8.70;79.30;;;;;;5021584;28;20916;-47
2022/02/21 01:56:36;;;;;;;5.97;0.93;;;8.70;79.60;;;;;;5002258;28;20494;-47
2022/02/21 01:59:04;;;;;;;5.53;0.70;;;8.60;78.70;;;;;;5006664;28;20464;-47
2022/02/21 02:01:31;;;;;;;1.97;1.43;;;8.60;79.20;;;;;;5003696;28;20464;-47
2022/02/21 02:04:03;;;;;;;2.13;0.70;;;8.60;79.40;;;;;;5005349;28;20487;-47
2022/02/21 02:06:31;;;;;;;2.27;1.00;;;8.60;78.20;;;;;;5022849;28;20889;-48
2022/02/21 02:08:58;;;;;;;2.20;0.80;;;8.60;79.40;;;;;;5020205;28;20463;-46
2022/02/21 02:11:32;;;;;;;3.67;1.20;;;8.60;78.60;;;;;;5020665;28;20452;-47
2022/02/21 02:13:59;;;;;;;3.30;0.90;;;8.60;78.80;;;;;;5021044;28;20524;-47
2022/02/21 02:16:25;;;;;;;3.97;1.10;;;8.60;77.90;;;;;;5012518;28;20489;-47
2022/02/21 02:18:58;;;;;;;3.70;0.70;;;8.60;77.40;;;;;;5020444;28;20542;-48
2022/02/21 02:21:26;;;;;;;4.20;1.10;;;8.60;77.70;;;;;;5020118;28;20447;-47
2022/02/21 02:23:55;;;;;;;1.67;0.80;;;8.60;78.00;;;;;;5018640;28;20505;-48
2022/02/21 02:26:23;;;;;;;4.67;1.63;;;8.60;77.10;;;;;;5019885;28;20464;-47
2022/02/21 02:28:51;;;;;;;1.67;1.27;;;8.70;77.60;;;;;;5019523;28;20816;-47
2022/02/21 02:31:18;;;;;;;1.77;0.60;;;8.60;77.10;;;;;;5003858;28;20459;-47
2022/02/21 02:33:45;;;;;;;5.10;1.40;;;8.60;76.90;;;;;;5019776;28;20473;-48
2022/02/21 02:36:12;;;;;;;2.30;0.87;;;8.60;76.90;;;;;;5019420;28;20487;-48
2022/02/21 02:38:40;;;;;;;4.00;1.50;;;8.60;77.10;;;;;;5019990;28;20456;-48
2022/02/21 02:41:08;;;;;;;1.70;0.80;;;8.70;76.80;;;;;;5004365;28;20464;-48
2022/02/21 02:43:37;;;;;;;3.17;1.10;;;8.70;76.00;;;;;;5017454;28;20463;-48
2022/02/21 02:46:04;;;;;;;3.07;0.90;;;8.60;76.50;;;;;;5001456;28;20471;-48
2022/02/21 02:48:32;;;;;;;3.93;1.10;;;8.60;76.50;;;;;;5024349;28;20700;-48
2022/02/21 02:50:59;;;;;;;1.07;0.70;;;8.60;75.80;;;;;;5020630;28;20480;-48
2022/02/21 02:53:28;;;;;;;3.40;0.90;;;8.60;75.20;;;;;;5018152;28;20455;-48
2022/02/21 02:55:54;;;;;;;11.83;1.10;;;8.60;75.40;;;;;;5020239;28;20510;-47
2022/02/21 02:58:21;;;;;;;3.83;1.03;;;8.60;73.50;;;;;;5022287;28;20455;-47
2022/02/21 03:00:48;;;;;;;1.60;0.87;;;8.60;73.10;;;;;;5025145;28;20967;-47
2022/02/21 03:03:15;;;;;;;3.37;1.03;;;8.60;72.50;;;;;;5021386;28;20804;-47
2022/02/21 03:05:42;;;;;;;3.63;1.40;;;8.70;71.40;;;;;;5018274;28;20467;-47
2022/02/21 03:08:08;;;;;;;8.70;1.00;;;8.70;70.40;;;;;;5023560;28;20478;-48
2022/02/21 03:10:35;;;;;;;3.90;0.97;;;8.70;69.50;;;;;;5022352;28;20474;-47
2022/02/21 03:13:05;;;;;;;3.80;0.93;;;8.70;70.00;;;;;;5023923;28;20463;-48
2022/02/21 03:15:32;;;;;;;3.77;1.20;;;8.70;69.10;;;;;;5024273;28;21292;-48
2022/02/21 03:17:58;;;;;;;3.53;1.43;;;8.70;68.40;;;;;;5025478;28;20463;-48
2022/02/21 03:20:25;;;;;;;1.73;0.93;;;8.60;67.80;;;;;;5017387;28;21067;-48
2022/02/21 03:22:52;;;;;;;3.30;1.13;;;8.60;68.10;;;;;;5020130;28;20456;-47
2022/02/21 03:25:19;;;;;;;5.97;0.80;;;8.60;68.60;;;;;;5023305;28;21004;-47
2022/02/21 03:27:46;;;;;;;6.00;0.90;;;8.60;67.30;;;;;;5007866;28;20471;-47
2022/02/21 03:30:13;;;;;;;4.57;1.10;;;8.60;66.20;;;;;;5021745;28;20468;-47
2022/02/21 03:32:40;;;;;;;5.23;1.57;;;8.60;65.50;;;;;;5023678;28;20455;-47
2022/02/21 03:35:07;;;;;;;1.97;0.67;;;8.60;65.50;;;;;;5022195;28;20451;-46
2022/02/21 03:37:35;;;;;;;1.30;1.03;;;8.60;66.70;;;;;;5020147;28;20578;-46
2022/02/21 03:40:06;;;;;;;3.17;1.23;;;8.50;65.90;;;;;;5019673;28;20474;-46
2022/02/21 03:42:34;;;;;;;2.23;0.90;;;8.50;65.20;;;;;;5022101;28;20485;-46
2022/02/21 03:45:03;;;;;;;4.17;1.00;;;8.50;63.10;;;;;;5020963;28;20455;-46
2022/02/21 03:47:30;;;;;;;2.03;0.73;;;8.50;64.20;;;;;;5001276;28;21007;-46
2022/02/21 03:49:56;;;;;;;3.27;0.80;;;8.40;62.00;;;;;;5022046;28;20559;-47
2022/02/21 03:52:23;;;;;;;2.60;1.40;;;8.40;61.20;;;;;;5019083;28;20836;-46
2022/02/21 03:54:50;;;;;;;1.00;0.70;;;8.30;61.80;;;;;;5018141;28;20471;-46
2022/02/21 03:57:17;;;;;;;2.00;0.90;;;8.30;60.10;;;;;;5005155;28;20491;-47
2022/02/21 03:59:44;;;;;;;2.60;0.93;;;8.20;59.60;;;;;;5023805;28;20463;-46
2022/02/21 04:02:11;;;;;;;1.87;0.70;;;8.20;59.40;;;;;;5022423;28;20489;-47
2022/02/21 04:04:37;;;;;;;3.00;1.10;;;8.10;59.90;;;;;;5004454;28;20513;-46
2022/02/21 04:07:05;;;;;;;1.90;0.97;;;8.00;59.40;;;;;;5021945;28;20463;-47
2022/02/21 04:09:31;;;;;;;3.90;0.70;;;7.90;60.10;;;;;;5023533;28;20459;-47
2022/02/21 04:11:58;;;;;;;1.07;0.73;;;7.80;59.90;;;;;;5017244;28;20976;-47
2022/02/21 04:14:25;;;;;;;7.43;1.27;;;7.80;60.00;;;;;;5022387;28;21042;-47
2022/02/21 04:16:52;;;;;;;2.67;0.83;;;7.70;60.50;;;;;;5020039;28;20494;-46
2022/02/21 04:19:18;;;;;;;1.57;0.67;;;7.70;60.80;;;;;;5020420;28;20934;-47
2022/02/21 04:21:45;;;;;;;1.43;0.80;;;7.60;61.80;;;;;;5018701;28;20484;-47
2022/02/21 04:24:12;;;;;;;2.00;0.80;;;7.60;62.00;;;;;;5017117;28;20667;-47
2022/02/21 04:26:39;;;;;;;2.87;1.00;;;7.60;63.20;;;;;;5016835;28;20467;-47
2022/02/21 04:29:05;;;;;;;1.97;1.10;;;7.50;63.30;;;;;;5020681;28;20466;-47
2022/02/21 04:31:32;;;;;;;2.40;1.40;;;7.40;64.30;;;;;;5020159;28;20554;-47
2022/02/21 04:33:59;;;;;;;4.23;1.30;;;7.40;64.20;;;;;;5018357;28;20463;-47
2022/02/21 04:36:26;;;;;;;3.50;1.00;;;7.40;64.50;;;;;;5019966;28;20483;-47
2022/02/21 04:38:52;;;;;;;6.73;1.60;;;7.30;64.50;;;;;;5024413;28;20455;-47
2022/02/21 04:41:19;;;;;;;3.10;1.70;;;7.30;64.60;;;;;;5005061;28;20451;-48
2022/02/21 04:43:46;;;;;;;4.50;1.73;;;7.20;65.20;;;;;;5020914;28;20499;-48
2022/02/21 04:46:13;;;;;;;2.30;1.00;;;7.20;65.70;;;;;;5019512;28;20813;-47
2022/02/21 04:48:39;;;;;;;4.97;1.87;;;7.20;66.10;;;;;;5006800;28;20479;-48
2022/02/21 04:51:06;;;;;;;4.97;2.00;;;7.20;66.00;;;;;;5025704;28;20472;-47
2022/02/21 04:53:33;;;;;;;7.63;2.10;;;7.10;66.40;;;;;;5006796;28;20467;-47
2022/02/21 04:56:00;;;;;;;3.13;1.23;;;7.10;66.50;;;;;;5004513;28;20498;-48
2022/02/21 04:58:26;;;;;;;2.50;1.60;;;7.10;65.60;;;;;;5009924;28;20455;-47
2022/02/21 05:00:53;;;;;;;13.27;1.93;;;7.00;65.90;;;;;;5026634;28;20463;-47
2022/02/21 05:03:20;;;;;;;4.47;1.80;;;7.00;65.30;;;;;;5010578;28;20948;-48
2022/02/21 05:05:47;;;;;;;11.40;1.70;;;7.00;64.70;;;;;;5012824;28;21019;-47
2022/02/21 05:08:14;;;;;;;8.00;2.27;;;6.90;66.00;;;;;;5024555;28;20477;-46
2022/02/21 05:10:41;;;;;;;3.87;1.20;;;6.90;65.90;;;;;;5010136;28;20956;-46
2022/02/21 05:13:07;;;;;;;7.20;3.13;;;6.90;66.10;;;;;;5026123;28;20453;-47
2022/02/21 05:15:34;;;;;;;3.23;1.13;;;6.90;65.80;;;;;;5007528;28;20463;-46
2022/02/21 05:18:01;;;;;;;8.13;1.40;;;6.90;66.30;;;;;;5009068;28;20483;-47
2022/02/21 05:20:28;;;;;;;6.13;1.87;;;6.90;66.40;;;;;;5018728;28;20468;-47
2022/02/21 05:22:55;;;;;;;5.33;1.60;;;6.90;66.30;;;;;;5009393;28;20544;-47
2022/02/21 05:25:22;;;;;;;8.43;1.80;;;6.90;66.50;;;;;;5022573;28;20479;-46
2022/02/21 05:27:49;;;;;;;5.80;1.90;;;6.90;65.10;;;;;;5021487;28;20467;-48
2022/02/21 05:30:16;;;;;;;3.50;2.10;;;6.80;65.40;;;;;;5023663;28;21079;-48
2022/02/21 05:32:43;;;;;;;2.80;1.57;;;6.80;65.40;;;;;;5024197;28;20467;-47
2022/02/21 05:35:10;;;;;;;5.67;1.73;;;6.70;65.20;;;;;;5023713;28;20460;-47
2022/02/21 05:37:37;;;;;;;6.60;1.50;;;6.70;64.20;;;;;;5008047;28;20491;-48
2022/02/21 05:40:04;;;;;;;7.93;2.10;;;6.70;62.80;;;;;;5022471;28;20838;-46
2022/02/21 05:42:32;;;;;;;10.43;1.73;;;6.60;63.50;;;;;;5020883;28;20494;-47
2022/02/21 05:44:58;;;;;;;2.70;1.43;;;6.60;63.10;;;;;;5023873;28;20490;-46
2022/02/21 05:47:25;;;;;;;5.63;1.60;;;6.60;62.60;;;;;;5011602;28;20499;-47
2022/02/21 05:49:52;;;;;;;8.30;1.27;;;6.60;62.90;;;;;;5009505;28;20883;-47
2022/02/21 05:52:19;;;;;;;3.57;1.23;;;6.60;62.50;;;;;;5019365;28;20819;-46
2022/02/21 05:54:45;;;;;;;4.37;1.30;;;6.60;62.80;;;;;;5005478;28;20968;-47
2022/02/21 05:57:12;;;;;;;8.67;3.00;;;6.60;62.20;;;;;;5007864;28;21021;-47
2022/02/21 05:59:39;;;;;;;4.20;1.73;;;6.60;62.60;;;;;;5007192;28;20513;-48
2022/02/21 06:02:06;;;;;;;6.00;1.80;;;6.60;62.80;;;;;;5018841;28;21346;-47
2022/02/21 06:04:32;;;;;;;5.17;1.70;;;6.50;62.60;;;;;;5025593;28;20456;-47
2022/02/21 06:06:59;;;;;;;7.80;1.60;;;6.50;63.60;;;;;;5024338;28;20474;-47
2022/02/21 06:09:26;;;;;;;5.40;1.57;;;6.50;64.00;;;;;;5023275;28;21637;-48
2022/02/21 06:11:53;;;;;;;6.50;1.90;;;6.50;63.60;;;;;;5021952;28;20463;-47
2022/02/21 06:14:20;;;;;;;7.23;2.70;;;6.50;64.20;;;;;;5022952;28;20558;-47
2022/02/21 06:16:47;;;;;;;4.70;1.60;;;6.50;64.70;;;;;;5024205;28;20491;-47
2022/02/21 06:19:14;;;;;;;13.07;2.20;;;6.50;63.70;;;;;;5017868;28;20502;-47
2022/02/21 06:21:41;;;;;;;7.53;1.67;;;6.50;64.20;;;;;;5021865;28;20502;-48
2022/02/21 06:24:12;;;;;;;10.27;2.70;;;6.40;64.90;;;;;;5018574;28;20455;-47
2022/02/21 06:26:39;;;;;;;6.23;1.67;;;6.40;64.70;;;;;;5005932;28;20470;-47
2022/02/21 06:29:06;;;;;;;5.53;2.20;;;6.50;64.30;;;;;;5021684;28;20459;-47
2022/02/21 06:31:33;;;;;;;9.50;2.20;;;6.40;65.20;;;;;;4997884;28;20459;-47
2022/02/21 06:34:00;;;;;;;4.73;1.50;;;6.40;64.30;;;;;;5005401;28;20463;-48
2022/02/21 06:36:27;;;;;;;4.97;1.50;;;6.40;64.30;;;;;;5023547;28;20574;-48
2022/02/21 06:38:53;;;;;;;5.90;1.40;;;6.40;64.30;;;;;;5023099;28;20455;-47
2022/02/21 06:41:20;;;;;;;7.20;1.50;;;6.40;65.00;;;;;;5026465;28;20606;-47
2022/02/21 06:43:47;;;;;;;4.50;1.30;;;6.40;64.60;;;;;;5020837;28;20490;-47
2022/02/21 06:46:14;;;;;;;8.83;1.50;;;6.40;64.00;;;;;;5023323;28;20483;-48
2022/02/21 06:48:41;;;;;;;5.03;2.83;;;6.40;65.20;;;;;;5018586;28;20467;-47
2022/02/21 06:51:08;;;;;;;4.73;1.43;;;6.40;66.70;;;;;;5018295;28;21006;-48
2022/02/21 06:53:34;;;;;;;8.93;1.80;;;6.40;68.10;;;;;;5018986;28;20462;-47
2022/02/21 06:56:01;;;;;;;7.97;1.93;;;6.30;70.20;;;;;;5021568;28;20898;-47
2022/02/21 06:58:28;;;;;;;2.43;0.80;;;6.20;71.40;;;;;;5020457;28;20844;-47
2022/02/21 07:00:55;;;;;;;2.43;0.80;;;6.00;72.80;;;;;;5023033;28;21045;-47
2022/02/21 07:03:22;;;;;;;6.83;1.00;;;5.80;74.10;;;;;;5015819;28;20859;-46
2022/02/21 07:05:48;;;;;;;0.60;0.60;;;5.70;74.50;;;;;;5002668;28;20459;-47
2022/02/21 07:08:15;;;;;;;1.93;0.70;;;5.50;74.60;;;;;;5024280;28;20553;-48
2022/02/21 07:10:42;;;;;;;1.20;0.67;;;5.40;75.50;;;;;;5022825;28;20467;-47
2022/02/21 07:13:09;;;;;;;1.13;0.60;;;5.40;76.30;;;;;;5021553;28;20460;-46
2022/02/21 07:15:36;;;;;;;1.30;0.30;;;5.40;77.10;;;;;;5018424;28;20459;-46
2022/02/21 07:18:03;;;;;;;1.13;0.40;;;5.40;77.20;;;;;;5008769;28;20582;-47
2022/02/21 07:20:30;;;;;;;1.40;0.47;;;5.40;77.60;;;;;;5021061;28;20466;-47
2022/02/21 07:22:56;;;;;;;1.43;0.40;;;5.40;77.90;;;;;;5017896;28;20546;-47
2022/02/21 07:25:23;;;;;;;2.77;0.60;;;5.30;78.50;;;;;;5015573;28;20463;-46
2022/02/21 07:27:53;;;;;;;1.47;0.63;;;5.30;78.70;;;;;;5005467;28;20467;-47
2022/02/21 07:30:31;;;;;;;1.13;0.50;;;5.30;79.80;;;;;;5004639;28;20465;-47
2022/02/21 07:32:58;;;;;;;0.40;0.30;;;5.30;79.80;;;;;;4999676;28;20831;-47
2022/02/21 07:35:25;;;;;;;1.57;0.50;;;5.40;79.70;;;;;;5022879;28;20463;-47
2022/02/21 07:37:52;;;;;;;1.17;0.77;;;5.40;79.50;;;;;;5022563;28;20487;-47
2022/02/21 07:40:19;;;;;;;2.43;0.60;;;5.40;79.60;;;;;;5005699;28;20463;-47
2022/02/21 07:42:54;;;;;;;2.93;1.20;;;5.50;79.20;;;;;;5024930;28;20984;-46
2022/02/21 07:45:25;;;;;;;4.80;1.17;;;5.50;79.30;;;;;;5025660;28;20638;-47
2022/02/21 07:47:57;;;;;;;1.20;0.90;;;5.50;78.90;;;;;;5022195;28;20493;-46
2022/02/21 07:50:27;;;;;;;0.70;0.50;;;5.50;78.90;;;;;;5022558;28;20991;-46
2022/02/21 07:52:55;;;;;;;1.63;0.93;;;5.70;79.30;;;;;;5024879;28;20470;-46
2022/02/21 07:55:25;;;;;;;6.00;1.37;;;5.70;78.80;;;;;;5011106;28;20471;-46
2022/02/21 07:57:52;;;;;;;3.70;1.87;;;5.70;78.40;;;;;;5027062;28;20577;-46
2022/02/21 08:00:20;;;;;;;2.60;0.97;;;5.70;79.10;;;;;;5025649;28;20467;-46
2022/02/21 08:02:48;;;;;;;6.17;1.37;;;5.70;78.60;;;;;;5023736;28;20487;-45
2022/02/21 08:05:15;;;;;;;11.00;1.30;;;5.70;78.90;;;;;;5021300;28;20470;-46
2022/02/21 08:07:44;;;;;;;8.87;1.33;;;5.70;79.60;;;;;;5012199;28;20459;-46
2022/02/21 08:10:13;;;;;;;3.80;1.00;;;5.80;79.60;;;;;;5018055;28;20470;-45
2022/02/21 08:12:40;;;;;;;10.20;2.00;;;5.70;79.60;;;;;;5018013;28;20550;-46
2022/02/21 08:15:07;;;;;;;2.00;0.77;;;5.80;79.60;;;;;;5021829;28;20568;-46
2022/02/21 08:17:52;;;;;;;5.30;0.97;;;5.80;80.00;;;;;;5022179;28;20474;-45
2022/02/21 08:20:22;;;;;;;5.20;1.30;;;5.80;79.50;;;;;;5019678;28;20464;-46
2022/02/21 08:22:51;;;;;;;3.73;1.23;;;5.80;79.10;;;;;;5024509;28;20953;-46
2022/02/21 08:25:18;;;;;;;2.07;1.13;;;5.80;79.10;;;;;;5023885;28;20455;-46
2022/02/21 08:27:46;;;;;;;3.00;0.90;;;5.80;79.30;;;;;;5026432;28;20550;-47
2022/02/21 08:30:15;;;;;;;3.47;1.20;;;5.80;79.50;;;;;;5028451;28;20572;-46
2022/02/21 08:32:42;;;;;;;3.10;1.00;;;5.90;79.10;;;;;;5023557;28;20977;-46
2022/02/21 08:35:10;;;;;;;7.53;1.50;;;6.00;78.70;;;;;;5024581;28;20474;-47
2022/02/21 08:37:38;;;;;;;3.20;1.40;;;6.00;78.80;;;;;;4992175;28;20498;-46
2022/02/21 08:40:06;;;;;;;2.57;1.00;;;6.00;78.30;;;;;;5026171;28;20553;-46
2022/02/21 08:42:34;;;;;;;8.70;1.17;;;6.10;78.70;;;;;;5024886;28;20455;-46
2022/02/21 08:45:01;;;;;;;3.57;1.30;;;6.20;78.50;;;;;;5024624;28;20523;-46
2022/02/21 08:47:27;;;;;;;2.80;1.77;;;6.20;77.00;;;;;;5024180;28;20478;-46
2022/02/21 08:49:54;;;;;;;4.20;1.73;;;6.30;76.10;;;;;;5024115;28;21047;-46
2022/02/21 08:52:21;;;;;;;7.83;2.43;;;6.30;76.00;;;;;;5023992;28;20466;-47
2022/02/21 08:54:48;;;;;;;4.20;1.37;;;6.40;75.50;;;;;;5022398;28;20463;-46
2022/02/21 08:57:16;;;;;;;2.20;1.53;;;6.50;73.60;;;;;;5006182;28;20590;-47
2022/02/21 08:59:43;;;;;;;4.23;1.40;;;6.50;73.00;;;;;;5025252;28;20467;-46
2022/02/21 09:02:10;;;;;;;6.17;1.30;;;6.60;73.50;;;;;;5024172;28;20961;-47
2022/02/21 09:04:57;;;;;;;3.97;2.10;;;6.70;73.40;;;;;;5007282;28;20489;-45
2022/02/21 09:07:24;;;;;;;5.37;1.90;;;6.80;72.00;;;;;;5019386;28;20467;-46
2022/02/21 09:09:51;;;;;;;5.90;2.00;;;6.90;70.30;;;;;;5022309;28;20558;-46
2022/02/21 09:12:18;;;;;;;5.63;1.83;;;6.90;69.20;;;;;;5023361;28;20470;-47
2022/02/21 09:14:47;;;;;;;2.70;1.27;;;6.90;70.00;;;;;;5005723;28;20467;-46
2022/02/21 09:17:14;;;;;;;5.47;1.37;;;7.00;69.70;;;;;;5007980;28;20514;-47
2022/02/21 09:19:41;;;;;;;6.30;1.87;;;7.10;69.10;;;;;;5022843;28;20470;-47
2022/02/21 09:22:08;;;;;;;6.97;2.50;;;7.10;69.20;;;;;;5007075;28;21259;-46
2022/02/21 09:24:34;;;;;;;6.43;1.57;;;7.20;68.30;;;;;;4989534;28;20555;-47
2022/02/21 09:27:01;;;;;;;5.63;1.50;;;7.30;67.30;;;;;;5020845;28;20550;-47
2022/02/21 09:29:28;;;;;;;6.13;2.03;;;7.30;66.90;;;;;;5003001;28;20553;-46
2022/02/21 09:31:56;;;;;;;4.83;1.40;;;7.30;65.80;;;;;;5025783;28;20462;-45
2022/02/21 09:34:23;;;;;;;8.90;1.70;;;7.30;66.50;;;;;;5023492;28;20591;-45
2022/02/21 09:36:50;;;;;;;2.93;1.13;;;7.40;67.30;;;;;;5024753;28;20454;-47
2022/02/21 09:39:17;;;;;;;3.90;1.00;;;7.50;65.00;;;;;;5021177;28;20499;-45
2022/02/21 09:41:45;;;;;;;2.87;1.23;;;7.60;66.00;;;;;;5025288;28;20472;-46
2022/02/21 09:44:12;;;;;;;5.23;1.10;;;7.60;64.80;;;;;;5022111;28;20467;-46
2022/02/21 09:46:42;;;;;;;5.50;2.00;;;7.70;62.50;;;;;;5007494;28;20588;-46
2022/02/21 09:49:09;;;;;;;1.97;0.87;;;7.70;63.00;;;;;;5005711;28;21063;-46
2022/02/21 09:51:36;;;;;;;7.13;1.50;;;7.80;62.40;;;;;;5023739;28;20468;-46
2022/02/21 09:54:03;;;;;;;4.00;1.00;;;7.80;61.20;;;;;;5020130;28;21128;-46
2022/02/21 09:56:29;;;;;;;2.37;1.07;;;7.90;62.60;;;;;;5004294;28;21194;-47
2022/02/21 09:58:56;;;;;;;2.80;1.20;;;8.00;63.40;;;;;;5021376;28;21004;-46
2022/02/21 10:01:27;;;;;;;4.70;1.37;;;8.10;62.70;;;;;;5016586;28;20482;-46
2022/02/21 10:03:55;;;;;;;2.23;1.07;;;8.30;62.80;;;;;;5004001;28;20467;-46
2022/02/21 10:06:25;;;;;;;2.30;1.20;;;8.30;62.10;;;;;;5018300;28;20471;-46
2022/02/21 10:09:09;;;;;;;2.10;1.10;;;8.40;62.00;;;;;;5018809;28;20477;-46
2022/02/21 10:11:42;;;;;;;3.60;1.13;;;8.40;61.90;;;;;;5019919;28;20466;-46
2022/02/21 10:14:12;;;;;;;3.80;0.83;;;8.50;62.80;;;;;;5004915;28;20548;-45
2022/02/21 10:16:42;;;;;;;2.67;0.80;;;8.60;62.70;;;;;;5022250;28;20498;-45
2022/02/21 10:19:20;;;;;;;1.47;0.90;;;8.70;62.80;;;;;;5023932;28;20522;-45
2022/02/21 10:22:08;;;;;;;4.10;1.47;;;8.80;60.80;;;;;;5022557;28;20801;-45
2022/02/21 10:24:41;;;;;;;1.93;0.93;;;8.80;62.30;;;;;;5022198;28;20474;-46
2022/02/21 10:27:16;;;;;;;1.80;0.67;;;8.90;62.50;;;;;;5022625;28;20465;-46
2022/02/21 10:29:49;;;;;;;1.80;0.80;;;9.00;62.00;;;;;;5018867;28;20473;-47
2022/02/21 10:32:18;;;;;;;1.17;1.00;;;9.20;59.80;;;;;;5018436;28;20464;-46
2022/02/21 10:34:45;;;;;;;6.07;1.40;;;9.30;58.70;;;;;;5020514;28;20459;-48
2022/02/21 10:37:17;;;;;;;2.50;1.00;;;9.40;59.90;;;;;;5021620;28;20463;-46
2022/02/21 10:39:44;;;;;;;4.43;2.07;;;9.50;59.40;;;;;;5020683;28;20470;-47
2022/02/21 10:42:11;;;;;;;2.87;0.90;;;9.60;58.50;;;;;;5021866;28;20928;-46
2022/02/21 10:44:40;;;;;;;4.93;0.67;;;9.60;58.00;;;;;;5019923;28;20470;-46
2022/02/21 10:47:07;;;;;;;3.93;1.40;;;9.60;58.20;;;;;;5004610;28;20493;-46
2022/02/21 10:49:59;;;;;;;3.50;0.93;;;9.60;57.20;;;;;;5020281;28;22479;-47
2022/02/21 10:52:30;;;;;;;4.93;0.80;;;9.50;58.50;;;;;;5003551;28;20831;-46
2022/02/21 10:54:57;;;;;;;1.73;0.90;;;9.60;57.90;;;;;;5022904;28;20480;-46
2022/02/21 10:57:28;;;;;;;3.20;1.00;;;9.60;57.30;;;;;;5001090;28;20459;-46
2022/02/21 10:59:56;;;;;;;2.23;1.10;;;9.70;57.50;;;;;;5022399;28;20467;-46
2022/02/21 11:02:24;;;;;;;4.10;1.27;;;9.70;56.50;;;;;;5023916;28;20464;-47
2022/02/21 11:04:54;;;;;;;4.20;1.30;;;9.80;56.90;;;;;;5022515;28;20455;-48
2022/02/21 11:07:28;;;;;;;1.80;0.83;;;9.90;56.60;;;;;;5063527;27;20576;-46
2022/02/21 11:09:59;;;;;;;2.50;1.00;;;10.00;56.60;;;;;;5057628;28;20463;-47
2022/02/21 11:12:32;;;;;;;8.07;1.40;;;10.10;57.60;;;;;;5059292;28;20459;-47
2022/02/21 11:15:01;;;;;;;2.40;0.93;;;10.20;57.00;;;;;;5054688;28;20458;-47
2022/02/21 11:17:29;;;;;;;4.70;1.00;;;10.20;57.40;;;;;;5060054;28;20547;-47
2022/02/21 11:19:56;;;;;;;3.20;0.87;;;10.20;57.10;;;;;;5057568;28;20458;-47
2022/02/21 11:22:24;;;;;;;1.77;1.03;;;10.10;58.90;;;;;;5059561;28;21156;-47
2022/02/21 11:25:13;;;;;;;5.60;1.10;;;10.00;59.60;;;;;;5056613;28;20552;-47
2022/02/21 11:28:03;;;;;;;7.93;0.83;;;9.80;61.40;;;;;;5040928;28;20465;-46
2022/02/21 11:30:31;;;;;;;5.50;1.33;;;9.50;63.90;;;;;;5057133;28;20457;-46
2022/02/21 11:33:07;;;;;;;2.43;0.90;;;9.30;64.70;;;;;;5056102;28;20636;-46
2022/02/21 11:35:37;;;;;;;4.80;1.00;;;9.00;66.10;;;;;;5059181;28;20544;-47
2022/02/21 11:38:17;;;;;;;5.70;1.27;;;8.90;67.90;;;;;;5056369;28;20896;-46
2022/02/21 11:40:53;;;;;;;3.50;1.53;;;8.90;67.50;;;;;;5056366;28;20462;-46
2022/02/21 11:43:32;;;;;;;6.80;0.90;;;8.90;67.30;;;;;;5063446;28;20457;-46
2022/02/21 11:46:19;;;;;;;2.90;1.40;;;9.00;64.60;;;;;;5046292;28;20492;-46
2022/02/21 11:48:57;;;;;;;3.00;1.53;;;9.10;65.10;;;;;;5044309;28;20460;-47
2022/02/21 11:51:26;;;;;;;7.27;1.50;;;9.20;64.80;;;;;;5045683;28;20465;-47
2022/02/21 11:53:53;;;;;;;4.87;1.47;;;9.30;64.80;;;;;;5047726;28;21018;-47
2022/02/21 11:56:52;;;;;;;2.07;1.07;;;9.40;64.80;;;;;;5042062;28;20511;-47
2022/02/21 11:59:22;;;;;;;1.30;1.03;;;9.50;62.40;;;;;;5045180;28;20467;-47
2022/02/21 12:01:49;;;;;;;5.10;0.80;;;9.60;62.00;;;;;;5041188;28;20458;-47
2022/02/21 12:04:17;;;;;;;2.57;0.90;;;9.60;61.00;;;;;;5043414;28;20463;-47
2022/02/21 12:06:55;;;;;;;6.00;1.40;;;9.70;61.00;;;;;;5043766;28;20589;-47
2022/02/21 12:09:23;;;;;;;3.70;0.97;;;9.70;59.50;;;;;;5047636;28;20463;-47
2022/02/21 12:11:50;;;;;;;2.40;1.10;;;9.80;60.90;;;;;;5049441;28;20469;-47
2022/02/21 12:14:19;;;;;;;2.30;1.20;;;9.90;60.00;;;;;;5048606;28;20933;-47
2022/02/21 12:16:57;;;;;;;1.30;1.00;;;9.90;58.70;;;;;;5041085;28;20494;-47
2022/02/21 12:19:28;;;;;;;1.00;0.67;;;9.80;59.40;;;;;;5031409;28;20467;-47
2022/02/21 12:22:16;;;;;;;4.90;1.10;;;9.80;60.60;;;;;;5034562;28;20469;-47
2022/02/21 12:25:12;;;;;;;1.40;1.00;;;9.70;62.90;;;;;;5028843;28;20478;-47
2022/02/21 12:28:09;;;;;;;1.97;0.90;;;9.60;63.80;;;;;;5029723;28;20482;-47
2022/02/21 12:30:42;;;;;;;2.20;1.00;;;9.60;63.70;;;;;;5033188;28;20546;-47
2022/02/21 12:33:11;;;;;;;2.00;1.00;;;9.50;65.20;;;;;;5030700;28;20582;-47
2022/02/21 12:35:45;;;;;;;2.87;0.93;;;9.50;64.30;;;;;;5032549;28;20459;-47
2022/02/21 12:38:14;;;;;;;2.40;0.90;;;9.40;65.00;;;;;;5030161;28;20815;-47
2022/02/21 12:40:59;;;;;;;2.10;1.30;;;9.30;65.10;;;;;;5045592;28;20953;-46
2022/02/21 12:43:48;;;;;;;4.90;0.97;;;9.20;65.40;;;;;;5035440;28;20464;-47
2022/02/21 12:46:39;;;;;;;2.83;0.63;;;9.10;66.40;;;;;;5035570;28;20497;-47
2022/02/21 12:49:14;;;;;;;2.40;0.87;;;9.00;66.80;;;;;;5036711;28;20458;-47
2022/02/21 12:51:46;;;;;;;1.87;1.00;;;8.90;66.80;;;;;;5054254;28;20825;-47
2022/02/21 12:54:13;;;;;;;1.23;0.90;;;8.90;67.00;;;;;;5025125;28;20457;-47
2022/02/21 12:56:50;;;;;;;2.40;1.20;;;8.80;67.60;;;;;;5054909;28;20526;-47
2022/02/21 12:59:20;;;;;;;5.37;1.37;;;8.70;67.60;;;;;;5051590;28;20561;-47
2022/02/21 13:01:49;;;;;;;5.60;2.27;;;8.70;68.20;;;;;;5050134;28;20552;-47
2022/02/21 13:04:18;;;;;;;5.10;2.00;;;8.80;68.40;;;;;;5053810;28;20890;-47